createdAt,value
2019-02-18T00:00:43.724Z,-0.60
2019-02-18T00:04:07.365Z,-0.60
2019-02-18T00:07:30.983Z,-0.70
2019-02-18T00:10:54.509Z,-0.70
2019-02-18T00:14:18.102Z,-0.80
2019-02-18T00:17:41.798Z,-0.80
2019-02-18T00:21:05.337Z,-0.80
2019-02-18T00:24:29.103Z,-0.80
2019-02-18T00:27:52.606Z,-0.70
2019-02-18T00:31:16.299Z,-0.70
2019-02-18T00:34:39.749Z,-0.70
2019-02-18T00:38:03.443Z,-0.70
2019-02-18T00:41:26.854Z,-0.80
2019-02-18T00:44:50.371Z,-0.80
2019-02-18T00:48:14.045Z,-0.90
2019-02-18T00:51:37.906Z,-0.90
2019-02-18T00:55:01.617Z,-1.00
2019-02-18T00:58:25.051Z,-1.00
2019-02-18T01:01:48.728Z,-1.00
2019-02-18T01:05:12.289Z,-1.00
2019-02-18T01:08:35.907Z,-1.00
2019-02-18T01:11:59.451Z,-1.10
2019-02-18T01:15:23.112Z,-1.00
2019-02-18T01:18:46.541Z,-1.00
2019-02-18T01:22:10.201Z,-1.00
2019-02-18T01:25:33.713Z,-1.10
2019-02-18T01:28:57.226Z,-1.20
2019-02-18T01:32:20.766Z,-1.20
2019-02-18T01:35:44.451Z,-1.20
2019-02-18T01:39:07.902Z,-1.20
2019-02-18T01:42:31.438Z,-1.20
2019-02-18T01:45:54.897Z,-1.30
2019-02-18T01:49:18.521Z,-1.20
2019-02-18T01:52:42.173Z,-1.30
2019-02-18T01:56:05.631Z,-1.40
2019-02-18T01:59:29.209Z,-1.30
2019-02-18T02:02:52.770Z,-1.30
2019-02-18T02:06:16.343Z,-1.20
2019-02-18T02:09:40.023Z,-1.20
2019-02-18T02:13:28.661Z,-1.20
2019-02-18T02:16:52.415Z,-1.20
2019-02-18T02:20:15.995Z,-1.30
2019-02-18T02:23:39.713Z,-1.20
2019-02-18T02:27:03.276Z,-1.20
2019-02-18T02:30:27.120Z,-1.20
2019-02-18T02:33:50.823Z,-1.30
2019-02-18T02:37:14.407Z,-1.40
2019-02-18T02:40:37.954Z,-1.40
2019-02-18T02:44:01.769Z,-1.30
2019-02-18T02:47:27.078Z,-1.40
2019-02-18T02:50:50.726Z,-1.30
2019-02-18T02:54:14.167Z,-1.40
2019-02-18T02:57:37.765Z,-1.30
2019-02-18T03:01:01.406Z,-1.30
2019-02-18T03:04:24.945Z,-1.30
2019-02-18T03:07:48.693Z,-1.40
2019-02-18T03:11:12.283Z,-1.50
2019-02-18T03:14:35.705Z,-1.50
2019-02-18T03:17:59.225Z,-1.40
2019-02-18T03:21:22.886Z,-1.40
2019-02-18T03:25:21.489Z,-1.30
2019-02-18T03:28:50.852Z,-1.10
2019-02-18T03:32:14.367Z,-1.10
2019-02-18T03:35:37.863Z,-1.20
2019-02-18T03:39:01.330Z,-1.30
2019-02-18T03:42:25.003Z,-1.20
2019-02-18T03:45:48.456Z,-1.00
2019-02-18T03:49:11.962Z,-0.80
2019-02-18T03:52:35.438Z,-0.90
2019-02-18T03:55:58.969Z,-1.00
2019-02-18T03:59:22.574Z,-1.10
2019-02-18T04:02:46.199Z,-1.10
2019-02-18T04:06:09.719Z,-1.20
2019-02-18T04:09:33.736Z,-1.20
2019-02-18T04:12:57.585Z,-1.20
2019-02-18T04:16:21.070Z,-1.30
2019-02-18T04:19:44.699Z,-1.40
2019-02-18T04:23:08.916Z,-1.30
2019-02-18T04:26:32.381Z,-1.40
2019-02-18T04:29:55.967Z,-1.30
2019-02-18T04:33:19.454Z,-1.30
2019-02-18T04:36:42.935Z,-1.30
2019-02-18T04:40:08.506Z,-1.30
2019-02-18T04:43:32.071Z,-1.30
2019-02-18T04:46:55.771Z,-1.40
2019-02-18T04:50:19.356Z,-1.50
2019-02-18T04:53:42.895Z,-1.50
2019-02-18T04:57:06.440Z,-1.50
2019-02-18T05:00:29.961Z,-1.50
2019-02-18T05:03:53.498Z,-1.50
2019-02-18T05:07:17.079Z,-1.50
2019-02-18T05:10:40.759Z,-1.40
2019-02-18T05:14:04.353Z,-1.30
2019-02-18T05:17:27.901Z,-1.20
2019-02-18T05:20:51.403Z,-0.90
2019-02-18T05:24:14.898Z,-0.80
2019-02-18T05:27:38.496Z,-0.70
2019-02-18T05:31:02.028Z,-0.60
2019-02-18T05:34:25.592Z,-0.60
2019-02-18T05:37:49.086Z,-0.60
2019-02-18T05:41:12.749Z,-0.50
2019-02-18T05:44:36.275Z,-0.50
2019-02-18T05:47:59.865Z,-0.40
2019-02-18T05:51:23.520Z,-0.40
2019-02-18T05:54:47.129Z,-0.40
2019-02-18T05:58:10.869Z,-0.40
2019-02-18T06:01:34.619Z,-0.60
2019-02-18T06:04:58.164Z,-0.50
2019-02-18T06:08:21.604Z,-0.50
2019-02-18T06:11:45.087Z,-0.30
2019-02-18T06:15:09.859Z,-0.30
2019-02-18T06:18:33.561Z,-0.30
2019-02-18T06:21:57.066Z,-0.20
2019-02-18T06:25:20.667Z,-0.10
2019-02-18T06:28:44.201Z,0.00
2019-02-18T06:32:07.964Z,0.00
2019-02-18T06:35:31.447Z,0.00
2019-02-18T06:38:57.516Z,0.30
2019-02-18T06:42:20.051Z,0.40
2019-02-18T06:45:47.906Z,0.60
2019-02-18T06:49:15.804Z,0.80
2019-02-18T06:52:39.525Z,1.10
2019-02-18T06:56:03.098Z,1.20
2019-02-18T06:59:28.359Z,1.20
2019-02-18T07:02:53.655Z,1.30
2019-02-18T07:06:18.903Z,1.20
2019-02-18T07:09:53.238Z,1.40
2019-02-18T07:13:17.043Z,1.60
2019-02-18T07:16:40.585Z,2.00
2019-02-18T07:20:06.208Z,2.10
2019-02-18T07:23:29.703Z,2.00
2019-02-18T07:26:53.887Z,2.10
2019-02-18T07:30:17.564Z,2.00
2019-02-18T07:33:41.146Z,1.90
2019-02-18T07:37:04.664Z,2.10
2019-02-18T07:40:28.202Z,2.40
2019-02-18T07:43:51.882Z,2.60
2019-02-18T07:47:15.443Z,3.00
2019-02-18T07:50:39.327Z,3.80
2019-02-18T07:54:03.006Z,3.90
2019-02-18T07:57:26.771Z,4.30
2019-02-18T08:00:50.279Z,4.50
2019-02-18T08:04:13.753Z,4.60
2019-02-18T08:07:37.283Z,4.50
2019-02-18T08:11:00.957Z,5.30
2019-02-18T08:14:24.766Z,5.40
2019-02-18T08:17:48.344Z,6.20
2019-02-18T08:21:11.939Z,7.30
2019-02-18T08:24:35.578Z,9.00
2019-02-18T08:27:59.132Z,11.00
2019-02-18T08:31:22.882Z,12.10
2019-02-18T08:34:46.491Z,13.60
2019-02-18T08:38:10.150Z,14.10
2019-02-18T08:41:33.826Z,15.50
2019-02-18T08:44:57.554Z,16.20
2019-02-18T08:48:21.296Z,15.30
2019-02-18T08:51:45.855Z,16.40
2019-02-18T08:55:11.974Z,15.30
2019-02-18T08:58:35.605Z,14.60
2019-02-18T09:01:59.185Z,15.20
2019-02-18T09:05:22.865Z,15.40
2019-02-18T09:08:46.473Z,17.50
2019-02-18T09:12:10.008Z,18.10
2019-02-18T09:15:33.489Z,17.50
2019-02-18T09:18:57.004Z,18.80
2019-02-18T09:22:28.386Z,18.30
2019-02-18T09:25:52.906Z,18.90
2019-02-18T09:29:16.497Z,19.50
2019-02-18T09:32:40.163Z,20.00
2019-02-18T09:36:03.911Z,19.20
2019-02-18T09:39:31.069Z,20.30
2019-02-18T09:42:52.685Z,19.70
2019-02-18T09:46:16.373Z,20.50
2019-02-18T09:49:39.981Z,19.20
2019-02-18T09:53:03.424Z,20.10
2019-02-18T09:56:26.971Z,19.90
2019-02-18T09:59:50.578Z,20.10
2019-02-18T10:03:14.055Z,21.80
2019-02-18T10:06:37.658Z,22.50
2019-02-18T10:10:01.306Z,24.00
2019-02-18T10:13:28.037Z,24.00
2019-02-18T10:16:51.513Z,21.10
2019-02-18T10:20:15.181Z,21.80
2019-02-18T10:23:39.212Z,20.50
2019-02-18T10:27:03.350Z,20.00
2019-02-18T10:30:27.034Z,19.30
2019-02-18T10:33:50.511Z,19.20
2019-02-18T10:37:14.119Z,20.70
2019-02-18T10:40:37.764Z,20.50
2019-02-18T10:44:01.237Z,20.90
2019-02-18T10:47:24.908Z,21.80
2019-02-18T10:50:48.479Z,22.70
2019-02-18T10:54:11.995Z,21.80
2019-02-18T10:57:35.625Z,22.70
2019-02-18T11:00:59.404Z,23.20
2019-02-18T11:04:23.096Z,23.40
2019-02-18T11:07:46.892Z,22.10
2019-02-18T11:11:16.966Z,21.70
2019-02-18T11:14:36.709Z,20.60
2019-02-18T11:18:00.236Z,21.40
2019-02-18T11:21:23.819Z,21.00
2019-02-18T11:24:47.422Z,22.30
2019-02-18T11:28:11.103Z,21.30
2019-02-18T11:31:34.639Z,21.20
2019-02-18T11:35:00.511Z,21.20
2019-02-18T11:38:23.663Z,21.90
2019-02-18T11:41:47.343Z,22.20
2019-02-18T11:45:13.051Z,23.10
2019-02-18T11:48:36.611Z,24.10
2019-02-18T11:52:00.414Z,24.00
2019-02-18T11:55:26.144Z,23.70
2019-02-18T11:58:49.695Z,22.80
2019-02-18T12:02:13.281Z,22.90
2019-02-18T12:05:36.796Z,22.00
2019-02-18T12:09:00.694Z,21.40
2019-02-18T12:12:24.614Z,21.10
2019-02-18T12:15:48.300Z,22.50
2019-02-18T12:19:11.971Z,23.20
2019-02-18T12:22:35.484Z,23.00
2019-02-18T12:25:59.243Z,21.90
2019-02-18T12:29:26.566Z,21.80
2019-02-18T12:32:48.221Z,19.50
2019-02-18T12:36:12.254Z,18.60
2019-02-18T12:39:35.871Z,18.10
2019-02-18T12:42:59.459Z,18.70
2019-02-18T12:46:23.184Z,19.50
2019-02-18T12:49:46.654Z,18.20
2019-02-18T12:53:10.350Z,17.80
2019-02-18T12:56:33.924Z,17.80
2019-02-18T12:59:57.497Z,18.20
2019-02-18T13:03:21.265Z,18.60
2019-02-18T13:06:45.209Z,18.30
2019-02-18T13:10:10.586Z,18.40
2019-02-18T13:13:34.479Z,19.00
2019-02-18T13:16:58.053Z,19.50
2019-02-18T13:20:21.619Z,19.10
2019-02-18T13:23:46.841Z,18.20
2019-02-18T13:27:11.027Z,18.10
2019-02-18T13:30:34.688Z,18.30
2019-02-18T13:33:58.167Z,18.50
2019-02-18T13:37:21.754Z,17.50
2019-02-18T13:40:45.284Z,17.00
2019-02-18T13:44:08.904Z,16.80
2019-02-18T13:47:32.443Z,16.50
2019-02-18T13:50:56.046Z,16.30
2019-02-18T13:54:19.787Z,16.00
2019-02-18T13:57:43.811Z,16.00
2019-02-18T14:01:07.420Z,15.60
2019-02-18T14:04:31.218Z,15.50
2019-02-18T14:07:54.805Z,15.60
2019-02-18T14:11:18.675Z,15.50
2019-02-18T14:14:42.579Z,15.30
2019-02-18T14:18:06.688Z,15.20
2019-02-18T14:21:30.348Z,15.40
2019-02-18T14:24:53.858Z,15.20
2019-02-18T14:28:17.785Z,15.00
2019-02-18T14:31:41.564Z,14.90
2019-02-18T14:35:06.384Z,15.10
2019-02-18T14:38:30.223Z,15.30
2019-02-18T14:41:53.828Z,15.20
2019-02-18T14:45:21.542Z,15.00
2019-02-18T14:48:45.181Z,14.90
2019-02-18T14:52:08.653Z,14.60
2019-02-18T14:55:32.284Z,14.20
2019-02-18T14:59:00.122Z,14.10
2019-02-18T15:02:28.280Z,14.00
2019-02-18T15:05:52.047Z,13.80
2019-02-18T15:09:15.657Z,13.60
2019-02-18T15:12:40.143Z,13.50
2019-02-18T15:16:03.777Z,13.40
2019-02-18T15:19:28.069Z,13.30
2019-02-18T15:22:52.071Z,13.10
2019-02-18T15:26:18.414Z,12.80
2019-02-18T15:29:45.694Z,12.50
2019-02-18T15:33:11.105Z,12.20
2019-02-18T15:36:34.740Z,11.80
2019-02-18T15:39:59.287Z,11.40
2019-02-18T15:43:23.067Z,11.10
2019-02-18T15:46:47.142Z,10.80
2019-02-18T15:50:16.849Z,10.50
2019-02-18T15:53:40.499Z,10.20
2019-02-18T15:57:04.491Z,9.90
2019-02-18T16:00:28.576Z,9.70
2019-02-18T16:03:52.508Z,9.30
2019-02-18T16:07:16.210Z,8.90
2019-02-18T16:10:40.055Z,8.60
2019-02-18T16:14:03.938Z,8.30
2019-02-18T16:17:27.911Z,8.00
2019-02-18T16:20:51.547Z,7.80
2019-02-18T16:24:20.007Z,7.50
2019-02-18T16:27:40.998Z,7.30
2019-02-18T16:31:04.651Z,7.00
2019-02-18T16:34:28.195Z,6.80
2019-02-18T16:37:51.960Z,6.50
2019-02-18T16:41:15.974Z,6.50
2019-02-18T16:44:39.681Z,6.40
2019-02-18T16:48:04.446Z,6.10
2019-02-18T16:51:29.099Z,5.80
2019-02-18T16:54:52.994Z,5.60
2019-02-18T16:58:17.064Z,5.40
2019-02-18T17:01:40.802Z,5.40
2019-02-18T17:05:05.386Z,5.20
2019-02-18T17:08:29.218Z,5.00
2019-02-18T17:11:53.387Z,4.90
2019-02-18T17:15:17.276Z,4.90
2019-02-18T17:18:43.979Z,4.70
2019-02-18T17:22:11.272Z,4.60
2019-02-18T17:25:35.282Z,4.40
2019-02-18T17:28:59.469Z,4.30
2019-02-18T17:32:23.895Z,4.20
2019-02-18T17:35:47.810Z,4.10
2019-02-18T17:39:12.447Z,3.80
2019-02-18T17:42:36.091Z,3.80
2019-02-18T17:46:00.281Z,3.80
2019-02-18T17:49:24.499Z,3.70
2019-02-18T17:52:49.304Z,3.50
2019-02-18T17:56:13.946Z,3.30
2019-02-18T17:59:38.778Z,3.30
2019-02-18T18:03:02.415Z,3.30
2019-02-18T18:06:26.309Z,3.20
2019-02-18T18:09:50.307Z,3.10
2019-02-18T18:13:13.963Z,3.10
2019-02-18T18:16:37.755Z,3.10
2019-02-18T18:20:04.452Z,3.10
2019-02-18T18:23:28.165Z,3.20
2019-02-18T18:26:52.275Z,3.10
2019-02-18T18:30:19.807Z,3.00
2019-02-18T18:33:43.536Z,3.00
2019-02-18T18:37:07.079Z,3.10
2019-02-18T18:40:30.746Z,3.10
2019-02-18T18:43:54.438Z,3.00
2019-02-18T18:47:18.186Z,3.00
2019-02-18T18:50:43.435Z,2.90
2019-02-18T18:54:07.043Z,2.70
2019-02-18T18:57:30.948Z,2.60
2019-02-18T19:00:54.728Z,2.50
2019-02-18T19:04:18.540Z,2.50
2019-02-18T19:07:42.080Z,2.30
2019-02-18T19:11:05.963Z,2.20
2019-02-18T19:14:29.698Z,2.10
2019-02-18T19:17:53.551Z,2.10
2019-02-18T19:21:17.372Z,2.10
2019-02-18T19:24:41.031Z,2.00
2019-02-18T19:28:04.669Z,1.90
2019-02-18T19:31:28.855Z,1.80
2019-02-18T19:34:52.770Z,1.70
2019-02-18T19:38:16.938Z,1.60
2019-02-18T19:41:40.711Z,1.60
2019-02-18T19:45:10.879Z,1.80
2019-02-18T19:48:34.859Z,1.60
2019-02-18T19:51:58.492Z,1.40
2019-02-18T19:55:22.784Z,1.30
2019-02-18T19:58:46.296Z,1.30
2019-02-18T20:02:09.935Z,1.20
2019-02-18T20:05:33.694Z,1.20
2019-02-18T20:08:57.294Z,1.10
2019-02-18T20:12:20.829Z,1.00
2019-02-18T20:15:44.524Z,0.90
2019-02-18T20:19:08.041Z,0.90
2019-02-18T20:22:31.912Z,0.90
2019-02-18T20:25:55.546Z,0.90
2019-02-18T20:29:19.319Z,0.90
2019-02-18T20:32:42.826Z,0.90
2019-02-18T20:36:06.606Z,0.80
2019-02-18T20:39:30.277Z,0.70
2019-02-18T20:42:54.488Z,0.70
2019-02-18T20:46:18.242Z,0.80
2019-02-18T20:49:41.878Z,1.00
2019-02-18T20:53:05.605Z,1.10
2019-02-18T20:56:29.454Z,1.10
2019-02-18T20:59:53.015Z,1.00
2019-02-18T21:03:16.622Z,0.80
2019-02-18T21:06:40.402Z,0.60
2019-02-18T21:10:05.063Z,0.50
2019-02-18T21:13:28.961Z,0.40
2019-02-18T21:16:52.497Z,0.40
2019-02-18T21:20:17.142Z,0.40
2019-02-18T21:23:41.084Z,0.20
2019-02-18T21:27:04.787Z,0.50
2019-02-18T21:30:28.602Z,0.60
2019-02-18T21:33:52.154Z,0.70
2019-02-18T21:37:15.640Z,0.80
2019-02-18T21:40:39.260Z,0.60
2019-02-18T21:44:03.031Z,0.40
2019-02-18T21:47:26.668Z,0.20
2019-02-18T21:50:50.125Z,0.20
2019-02-18T21:54:13.635Z,0.20
2019-02-18T21:57:37.279Z,0.30
2019-02-18T22:01:00.964Z,0.30
2019-02-18T22:04:24.521Z,0.30
2019-02-18T22:07:48.021Z,0.40
2019-02-18T22:11:12.904Z,0.50
2019-02-18T22:14:37.071Z,0.50
2019-02-18T22:18:00.564Z,0.50
2019-02-18T22:21:25.129Z,0.50
2019-02-18T22:24:48.639Z,0.30
2019-02-18T22:28:12.371Z,0.30
2019-02-18T22:31:36.490Z,0.40
2019-02-18T22:35:00.680Z,0.50
2019-02-18T22:38:24.323Z,0.50
2019-02-18T22:41:47.797Z,0.40
2019-02-18T22:45:11.895Z,0.30
2019-02-18T22:48:35.592Z,0.40
2019-02-18T22:51:59.376Z,0.50
2019-02-18T22:55:22.951Z,0.50
2019-02-18T22:58:46.584Z,0.40
2019-02-18T23:02:10.303Z,0.30
2019-02-18T23:05:33.861Z,0.30
2019-02-18T23:08:57.730Z,0.30
2019-02-18T23:12:21.690Z,0.30
2019-02-18T23:15:45.374Z,0.20
2019-02-18T23:19:10.173Z,0.10
2019-02-18T23:22:33.863Z,0.00
2019-02-18T23:25:57.465Z,0.00
2019-02-18T23:29:21.018Z,0.10
2019-02-18T23:32:44.559Z,0.00
2019-02-18T23:36:08.505Z,0.00
2019-02-18T23:39:32.123Z,-0.20
2019-02-18T23:42:55.946Z,-0.20
2019-02-18T23:46:19.331Z,-0.10
2019-02-18T23:49:43.035Z,-0.10
2019-02-18T23:53:06.882Z,-0.10
2019-02-18T23:56:30.543Z,-0.10
2019-02-18T23:59:54.115Z,-0.20
